createdAt,value
2018-03-25T00:00:05.331Z,52.70
2018-03-25T00:02:32.803Z,52.70
2018-03-25T00:05:01.079Z,53.20
2018-03-25T00:07:28.572Z,53.20
2018-03-25T00:09:56.064Z,53.20
2018-03-25T00:12:23.582Z,53.20
2018-03-25T00:14:51.075Z,53.90
2018-03-25T00:17:18.562Z,53.50
2018-03-25T00:19:46.093Z,53.30
2018-03-25T00:22:13.575Z,52.80
2018-03-25T00:24:41.076Z,52.50
2018-03-25T00:27:08.585Z,52.40
2018-03-25T00:29:36.065Z,53.00
2018-03-25T00:32:03.584Z,52.90
2018-03-25T00:34:31.102Z,52.90
2018-03-25T00:36:58.593Z,52.30
2018-03-25T00:39:26.868Z,52.80
2018-03-25T00:41:54.348Z,52.80
2018-03-25T00:44:22.649Z,53.50
2018-03-25T00:46:50.146Z,53.40
2018-03-25T00:49:17.641Z,53.10
2018-03-25T00:51:45.917Z,54.30
2018-03-25T00:54:13.403Z,54.20
2018-03-25T00:56:40.891Z,54.70
2018-03-25T00:59:08.403Z,54.90
2018-03-25T01:01:35.888Z,54.20
2018-03-25T01:04:03.406Z,53.70
2018-03-25T01:06:30.903Z,54.30
2018-03-25T01:08:59.150Z,52.20
2018-03-25T01:11:26.662Z,52.10
2018-03-25T01:13:54.148Z,52.60
2018-03-25T01:16:21.658Z,51.80
2018-03-25T01:18:49.146Z,52.40
2018-03-25T01:21:16.643Z,51.50
2018-03-25T01:23:44.154Z,53.00
2018-03-25T01:26:11.660Z,52.00
2018-03-25T01:28:39.186Z,51.80
2018-03-25T01:31:07.500Z,51.90
2018-03-25T01:33:35.019Z,51.90
2018-03-25T01:36:02.521Z,52.20
2018-03-25T01:38:30.021Z,52.40
2018-03-25T01:40:57.537Z,52.50
2018-03-25T01:43:25.054Z,52.50
2018-03-25T01:45:52.538Z,51.70
2018-03-25T01:48:20.062Z,51.50
2018-03-25T01:50:47.550Z,51.90
2018-03-25T01:53:15.042Z,52.30
2018-03-25T01:55:42.557Z,52.60
2018-03-25T01:58:10.044Z,53.00
2018-03-25T02:00:37.583Z,47.30
2018-03-25T02:03:05.063Z,49.50
2018-03-25T02:05:32.568Z,50.80
2018-03-25T02:08:00.081Z,51.30
2018-03-25T02:10:27.584Z,52.40
2018-03-25T02:12:55.098Z,52.00
2018-03-25T02:15:22.591Z,52.20
2018-03-25T02:17:50.843Z,52.80
2018-03-25T02:20:18.353Z,52.70
2018-03-25T02:22:45.845Z,52.80
2018-03-25T02:25:13.366Z,52.90
2018-03-25T02:27:40.862Z,52.40
2018-03-25T02:30:08.338Z,53.90
2018-03-25T02:32:35.866Z,54.40
2018-03-25T02:35:04.138Z,52.90
2018-03-25T02:37:32.421Z,54.20
2018-03-25T02:40:00.694Z,54.30
2018-03-25T02:42:28.180Z,54.20
2018-03-25T02:44:55.717Z,54.70
2018-03-25T02:47:23.202Z,55.10
2018-03-25T02:49:50.678Z,54.70
2018-03-25T02:52:18.184Z,54.20
2018-03-25T02:54:45.677Z,53.30
2018-03-25T02:57:13.210Z,52.90
2018-03-25T02:59:40.722Z,53.60
2018-03-25T03:02:08.229Z,53.00
2018-03-25T03:04:35.756Z,53.80
2018-03-25T03:07:03.262Z,54.50
2018-03-25T03:09:30.757Z,54.50
2018-03-25T03:11:58.257Z,54.90
2018-03-25T03:14:25.779Z,54.60
2018-03-25T03:16:53.288Z,55.30
2018-03-25T03:19:20.778Z,55.50
2018-03-25T03:21:49.054Z,56.60
2018-03-25T03:24:16.560Z,57.00
2018-03-25T03:26:44.081Z,56.00
2018-03-25T03:29:11.569Z,55.00
2018-03-25T03:31:39.087Z,55.50
2018-03-25T03:34:08.219Z,55.80
2018-03-25T03:36:35.697Z,55.80
2018-03-25T03:39:03.247Z,56.50
2018-03-25T03:41:30.746Z,56.60
2018-03-25T03:43:59.025Z,56.70
2018-03-25T03:46:26.509Z,56.70
2018-03-25T03:48:54.019Z,56.40
2018-03-25T03:51:21.509Z,56.30
2018-03-25T03:53:49.033Z,56.30
2018-03-25T03:56:16.517Z,56.60
2018-03-25T03:58:44.007Z,57.10
2018-03-25T04:01:11.503Z,57.00
2018-03-25T04:03:39.008Z,56.80
2018-03-25T04:06:06.528Z,57.20
2018-03-25T04:08:34.031Z,57.20
2018-03-25T04:11:01.506Z,57.50
2018-03-25T04:13:29.005Z,57.70
2018-03-25T04:15:56.498Z,58.30
2018-03-25T04:18:23.996Z,57.80
2018-03-25T04:20:52.252Z,57.70
2018-03-25T04:23:19.756Z,57.70
2018-03-25T04:25:47.242Z,58.30
2018-03-25T04:28:14.728Z,57.60
2018-03-25T04:30:42.241Z,57.70
2018-03-25T04:33:09.722Z,57.80
2018-03-25T04:35:37.220Z,57.90
2018-03-25T04:38:04.722Z,58.00
2018-03-25T04:40:32.986Z,58.40
2018-03-25T04:43:00.470Z,58.40
2018-03-25T04:45:27.983Z,58.20
2018-03-25T04:47:55.493Z,58.70
2018-03-25T04:50:22.982Z,59.50
2018-03-25T04:52:50.500Z,59.50
2018-03-25T04:55:17.985Z,59.40
2018-03-25T04:57:46.266Z,59.70
2018-03-25T05:00:13.777Z,59.70
2018-03-25T05:02:41.261Z,59.50
2018-03-25T05:05:08.769Z,58.90
2018-03-25T05:07:36.256Z,58.30
2018-03-25T05:10:03.763Z,57.50
2018-03-25T05:12:32.054Z,57.80
2018-03-25T05:15:00.415Z,58.00
2018-03-25T05:17:27.921Z,58.00
2018-03-25T05:19:55.407Z,57.80
2018-03-25T05:22:22.910Z,57.20
2018-03-25T05:24:50.392Z,57.60
2018-03-25T05:27:18.659Z,58.20
2018-03-25T05:29:46.908Z,58.30
2018-03-25T05:32:14.429Z,58.30
2018-03-25T05:34:41.909Z,58.50
2018-03-25T05:37:09.396Z,58.50
2018-03-25T05:39:36.909Z,58.90
2018-03-25T05:42:04.407Z,58.80
2018-03-25T05:44:31.887Z,59.00
2018-03-25T05:46:59.401Z,58.80
2018-03-25T05:49:26.896Z,58.60
2018-03-25T05:51:54.398Z,58.50
2018-03-25T05:54:21.887Z,59.10
2018-03-25T05:56:50.142Z,59.10
2018-03-25T05:59:18.411Z,58.90
2018-03-25T06:01:45.923Z,58.60
2018-03-25T06:04:13.435Z,59.50
2018-03-25T06:06:40.932Z,61.40
2018-03-25T06:09:08.418Z,61.80
2018-03-25T06:11:35.935Z,60.50
2018-03-25T06:14:03.426Z,59.50
2018-03-25T06:16:30.942Z,59.00
2018-03-25T06:18:58.422Z,59.50
2018-03-25T06:21:25.910Z,60.70
2018-03-25T06:23:54.188Z,57.90
2018-03-25T06:26:22.438Z,58.90
2018-03-25T06:28:49.938Z,58.90
2018-03-25T06:31:17.417Z,62.10
2018-03-25T06:33:44.920Z,61.00
2018-03-25T06:36:12.456Z,57.90
2018-03-25T06:38:39.967Z,59.70
2018-03-25T06:41:08.247Z,55.60
2018-03-25T06:43:36.517Z,56.80
2018-03-25T06:46:04.008Z,56.80
2018-03-25T06:48:31.578Z,56.60
2018-03-25T06:50:59.115Z,57.20
2018-03-25T06:53:26.623Z,57.90
2018-03-25T06:55:54.108Z,57.40
2018-03-25T06:58:21.607Z,57.30
2018-03-25T07:00:49.121Z,58.60
2018-03-25T07:03:17.373Z,59.60
2018-03-25T07:05:44.895Z,59.50
2018-03-25T07:08:12.397Z,58.60
2018-03-25T07:10:39.905Z,59.40
2018-03-25T07:13:07.407Z,58.60
2018-03-25T07:15:35.677Z,56.30
2018-03-25T07:18:03.775Z,56.30
2018-03-25T07:20:32.038Z,53.10
2018-03-25T07:23:00.323Z,51.00
2018-03-25T07:25:28.601Z,50.30
2018-03-25T07:27:56.859Z,49.70
2018-03-25T07:30:24.397Z,49.70
2018-03-25T07:32:51.890Z,49.90
2018-03-25T07:35:19.421Z,50.20
2018-03-25T07:37:46.939Z,50.20
2018-03-25T07:40:14.431Z,50.50
2018-03-25T07:42:41.990Z,51.20
2018-03-25T07:45:09.524Z,51.90
2018-03-25T07:47:37.039Z,51.60
2018-03-25T07:50:04.562Z,51.60
2018-03-25T07:52:32.056Z,52.00
2018-03-25T07:54:59.542Z,53.20
2018-03-25T07:57:27.824Z,53.00
2018-03-25T07:59:55.324Z,52.90
2018-03-25T08:02:23.581Z,50.80
2018-03-25T08:04:51.126Z,50.70
2018-03-25T08:07:18.632Z,49.10
2018-03-25T08:09:46.911Z,49.30
2018-03-25T08:12:15.202Z,45.80
2018-03-25T08:14:43.462Z,47.40
2018-03-25T08:17:11.754Z,48.50
2018-03-25T08:19:40.026Z,49.10
2018-03-25T08:22:07.546Z,48.50
2018-03-25T08:24:35.804Z,47.20
2018-03-25T08:27:03.352Z,47.20
2018-03-25T08:29:31.606Z,46.40
2018-03-25T08:31:59.132Z,46.30
2018-03-25T08:34:26.652Z,45.80
2018-03-25T08:36:54.956Z,43.00
2018-03-25T08:39:22.454Z,43.00
2018-03-25T08:41:49.938Z,42.60
2018-03-25T08:44:17.464Z,41.90
2018-03-25T08:46:44.997Z,39.60
2018-03-25T08:49:13.271Z,36.50
2018-03-25T08:51:41.564Z,37.50
2018-03-25T08:54:09.068Z,37.40
2018-03-25T08:56:36.610Z,36.40
2018-03-25T08:59:04.124Z,36.10
2018-03-25T09:01:31.607Z,35.90
2018-03-25T09:03:59.878Z,36.90
2018-03-25T09:06:28.149Z,35.80
2018-03-25T09:08:55.671Z,35.80
2018-03-25T09:11:23.973Z,33.80
2018-03-25T09:13:51.606Z,33.80
2018-03-25T09:16:19.118Z,35.50
2018-03-25T09:18:46.621Z,33.20
2018-03-25T09:21:14.151Z,32.30
2018-03-25T09:23:41.658Z,32.50
2018-03-25T09:26:09.196Z,33.20
2018-03-25T09:28:36.741Z,34.00
2018-03-25T09:31:04.236Z,36.00
2018-03-25T09:33:31.764Z,33.70
2018-03-25T09:36:00.033Z,34.30
2018-03-25T09:38:27.548Z,34.30
2018-03-25T09:40:55.049Z,32.30
2018-03-25T09:43:22.562Z,34.10
2018-03-25T09:45:50.134Z,36.00
2018-03-25T09:48:17.673Z,36.30
2018-03-25T09:50:45.947Z,35.20
2018-03-25T09:53:14.257Z,37.00
2018-03-25T09:55:41.799Z,36.90
2018-03-25T09:58:09.295Z,33.80
2018-03-25T10:00:36.830Z,32.50
2018-03-25T10:03:10.638Z,33.60
2018-03-25T10:05:38.178Z,33.50
2018-03-25T10:08:05.712Z,32.80
2018-03-25T10:10:33.234Z,33.30
2018-03-25T10:13:01.516Z,32.60
2018-03-25T10:15:29.779Z,31.00
2018-03-25T10:17:58.090Z,30.30
2018-03-25T10:20:25.626Z,30.20
2018-03-25T10:22:53.139Z,31.60
2018-03-25T10:25:20.648Z,30.70
2018-03-25T10:27:48.153Z,30.50
2018-03-25T10:30:15.679Z,30.80
2018-03-25T10:32:43.938Z,34.60
2018-03-25T10:35:11.483Z,34.60
2018-03-25T10:37:39.003Z,30.30
2018-03-25T10:40:06.529Z,32.60
2018-03-25T10:42:34.032Z,30.50
2018-03-25T10:45:01.545Z,30.50
2018-03-25T10:47:29.088Z,30.60
2018-03-25T10:49:56.619Z,33.90
2018-03-25T10:52:24.903Z,35.20
2018-03-25T10:54:52.405Z,35.20
2018-03-25T10:57:19.905Z,31.30
2018-03-25T10:59:47.424Z,29.70
2018-03-25T11:02:15.010Z,31.50
2018-03-25T11:04:42.555Z,30.10
2018-03-25T11:07:10.881Z,30.30
2018-03-25T11:09:38.451Z,30.30
2018-03-25T11:12:06.730Z,30.50
2018-03-25T11:14:35.026Z,31.90
2018-03-25T11:17:02.576Z,31.90
2018-03-25T11:19:30.856Z,32.00
2018-03-25T11:21:59.134Z,31.90
2018-03-25T11:24:27.460Z,32.60
2018-03-25T11:26:54.974Z,32.60
2018-03-25T11:29:23.279Z,35.40
2018-03-25T11:31:50.780Z,35.40
2018-03-25T11:34:18.303Z,34.70
2018-03-25T11:36:45.873Z,34.00
2018-03-25T11:39:13.451Z,33.30
2018-03-25T11:41:40.986Z,32.90
2018-03-25T11:44:08.494Z,36.60
2018-03-25T11:46:35.997Z,37.70
2018-03-25T11:49:03.576Z,38.80
2018-03-25T11:51:31.852Z,36.80
2018-03-25T11:54:00.169Z,37.70
2018-03-25T11:56:27.694Z,37.60
2018-03-25T11:58:55.985Z,40.00
2018-03-25T12:01:23.534Z,40.20
2018-03-25T12:03:51.041Z,38.50
2018-03-25T12:06:18.580Z,38.70
2018-03-25T12:08:46.926Z,38.90
2018-03-25T12:11:14.555Z,38.90
2018-03-25T12:13:42.118Z,38.50
2018-03-25T12:16:09.694Z,38.00
2018-03-25T12:18:37.208Z,38.00
2018-03-25T12:21:05.604Z,38.60
2018-03-25T12:23:33.174Z,38.60
2018-03-25T12:26:00.697Z,40.20
2018-03-25T12:28:28.277Z,39.50
2018-03-25T12:30:55.766Z,39.40
2018-03-25T12:33:24.054Z,39.10
2018-03-25T12:35:51.592Z,39.10
2018-03-25T12:38:19.090Z,39.50
2018-03-25T12:40:46.634Z,40.50
2018-03-25T12:43:14.162Z,39.70
2018-03-25T12:45:41.664Z,40.60
2018-03-25T12:48:09.236Z,39.90
2018-03-25T12:50:36.844Z,40.40
2018-03-25T12:53:04.380Z,42.00
2018-03-25T12:55:31.900Z,41.10
2018-03-25T12:57:59.508Z,40.70
2018-03-25T13:00:27.079Z,40.90
2018-03-25T13:02:54.598Z,40.70
2018-03-25T13:05:22.949Z,39.90
2018-03-25T13:07:50.563Z,39.90
2018-03-25T13:10:18.084Z,39.80
2018-03-25T13:12:45.802Z,39.30
2018-03-25T13:15:13.565Z,40.00
2018-03-25T13:17:41.143Z,37.70
2018-03-25T13:20:08.673Z,38.60
2018-03-25T13:22:36.169Z,38.10
2018-03-25T13:25:03.799Z,36.40
2018-03-25T13:27:32.121Z,35.20
2018-03-25T13:29:59.667Z,35.10
2018-03-25T13:32:27.242Z,31.80
2018-03-25T13:34:54.789Z,33.20
2018-03-25T13:37:23.093Z,34.40
2018-03-25T13:39:50.615Z,34.40
2018-03-25T13:42:18.147Z,33.60
2018-03-25T13:44:45.690Z,32.10
2018-03-25T13:47:13.211Z,31.10
2018-03-25T13:49:40.763Z,32.30
2018-03-25T13:52:08.320Z,30.70
2018-03-25T13:54:35.848Z,30.30
2018-03-25T13:57:03.413Z,32.60
2018-03-25T13:59:30.957Z,34.40
2018-03-25T14:01:58.522Z,28.90
2018-03-25T14:04:26.128Z,28.50
2018-03-25T14:06:53.698Z,29.80
2018-03-25T14:09:21.366Z,30.70
2018-03-25T14:11:48.909Z,29.20
2018-03-25T14:14:16.438Z,29.00
2018-03-25T14:16:44.874Z,29.70
2018-03-25T14:19:12.422Z,29.60
2018-03-25T14:21:40.048Z,28.70
2018-03-25T14:24:07.606Z,27.40
2018-03-25T14:26:36.106Z,27.70
2018-03-25T14:29:03.862Z,27.80
2018-03-25T14:31:31.427Z,27.80
2018-03-25T14:33:59.828Z,29.90
2018-03-25T14:36:27.620Z,29.80
2018-03-25T14:38:55.170Z,29.10
2018-03-25T14:41:22.901Z,28.30
2018-03-25T14:43:50.549Z,29.50
2018-03-25T14:46:18.308Z,29.80
2018-03-25T14:48:46.615Z,29.80
2018-03-25T14:51:14.219Z,29.70
2018-03-25T14:53:42.535Z,28.60
2018-03-25T14:56:10.558Z,28.60
2018-03-25T14:58:38.962Z,27.80
2018-03-25T15:01:06.626Z,27.80
2018-03-25T15:03:34.279Z,28.50
2018-03-25T15:06:01.916Z,27.90
2018-03-25T15:08:29.669Z,28.30
2018-03-25T15:10:58.186Z,30.40
2018-03-25T15:13:25.871Z,30.30
2018-03-25T15:15:53.514Z,30.00
2018-03-25T15:18:21.344Z,30.00
2018-03-25T15:20:49.995Z,31.00
2018-03-25T15:23:17.623Z,31.00
2018-03-25T15:25:45.247Z,32.50
2018-03-25T15:28:12.840Z,33.00
2018-03-25T15:30:40.558Z,32.10
2018-03-25T15:33:08.288Z,32.20
2018-03-25T15:35:36.010Z,33.80
2018-03-25T15:38:03.774Z,35.10
2018-03-25T15:40:31.332Z,34.00
2018-03-25T15:42:58.925Z,33.80
2018-03-25T15:45:26.528Z,33.70
2018-03-25T15:47:54.085Z,34.60
2018-03-25T15:50:21.851Z,33.90
2018-03-25T15:52:49.734Z,35.20
2018-03-25T15:55:17.614Z,35.00
2018-03-25T15:57:45.504Z,36.10
2018-03-25T16:00:13.378Z,36.10
2018-03-25T16:02:41.018Z,36.10
2018-03-25T16:05:09.375Z,36.10
2018-03-25T16:07:36.957Z,36.10
2018-03-25T16:10:04.646Z,36.90
2018-03-25T16:12:33.018Z,38.60
2018-03-25T16:15:00.560Z,38.60
2018-03-25T16:17:28.097Z,40.50
2018-03-25T16:19:55.646Z,40.20
2018-03-25T16:22:23.507Z,40.30
2018-03-25T16:24:51.375Z,38.30
2018-03-25T16:27:19.228Z,37.70
2018-03-25T16:29:47.108Z,37.20
2018-03-25T16:32:14.756Z,38.00
2018-03-25T16:34:43.061Z,38.10
2018-03-25T16:37:10.723Z,38.10
2018-03-25T16:39:38.305Z,37.60
2018-03-25T16:42:06.159Z,37.60
2018-03-25T16:44:34.669Z,38.30
2018-03-25T16:47:02.524Z,38.90
2018-03-25T16:49:30.420Z,38.80
2018-03-25T16:51:58.277Z,38.10
2018-03-25T16:54:26.724Z,38.50
2018-03-25T16:56:54.562Z,38.50
2018-03-25T16:59:22.451Z,39.40
2018-03-25T17:01:51.109Z,40.20
2018-03-25T17:04:18.702Z,40.20
2018-03-25T17:06:46.333Z,40.60
2018-03-25T17:09:13.866Z,40.60
2018-03-25T17:11:42.195Z,41.30
2018-03-25T17:14:10.470Z,41.70
2018-03-25T17:16:37.984Z,41.70
2018-03-25T17:19:06.386Z,43.20
2018-03-25T17:21:33.908Z,43.20
2018-03-25T17:24:01.417Z,44.00
2018-03-25T17:26:28.924Z,44.40
2018-03-25T17:28:56.502Z,44.90
2018-03-25T17:31:24.061Z,46.10
2018-03-25T17:33:51.675Z,46.30
2018-03-25T17:36:19.415Z,47.00
2018-03-25T17:38:46.963Z,47.70
2018-03-25T17:41:14.527Z,47.30
2018-03-25T17:43:42.048Z,47.40
2018-03-25T17:46:09.623Z,47.50
2018-03-25T17:48:37.172Z,48.10
2018-03-25T17:51:04.675Z,48.00
2018-03-25T17:53:32.238Z,48.50
2018-03-25T17:55:59.851Z,48.80
2018-03-25T17:58:27.381Z,49.00
2018-03-25T18:00:54.929Z,49.20
2018-03-25T18:03:22.490Z,49.10
2018-03-25T18:05:50.146Z,49.20
2018-03-25T18:08:17.757Z,49.10
2018-03-25T18:10:46.110Z,48.90
2018-03-25T18:13:13.642Z,48.90
2018-03-25T18:18:15.130Z,49.40
2018-03-25T18:20:42.654Z,49.30
2018-03-25T18:23:10.233Z,49.10
2018-03-25T18:25:37.800Z,50.00
2018-03-25T18:28:05.347Z,49.80
2018-03-25T18:30:33.174Z,49.80
2018-03-25T18:33:01.634Z,49.50
2018-03-25T18:35:29.234Z,49.50
2018-03-25T18:37:56.904Z,50.70
2018-03-25T18:40:24.466Z,50.70
2018-03-25T18:42:51.999Z,50.50
2018-03-25T18:45:19.545Z,49.90
2018-03-25T18:47:47.026Z,49.90
2018-03-25T18:50:14.616Z,50.20
2018-03-25T18:52:42.674Z,49.90
2018-03-25T18:55:10.255Z,50.70
2018-03-25T18:57:37.764Z,50.60
2018-03-25T19:00:05.292Z,50.60
2018-03-25T19:02:32.796Z,50.90
2018-03-25T19:05:00.406Z,50.60
2018-03-25T19:07:28.001Z,51.50
2018-03-25T19:09:55.823Z,51.60
2018-03-25T19:12:23.475Z,50.90
2018-03-25T19:14:51.710Z,51.00
2018-03-25T19:17:19.620Z,52.00
2018-03-25T19:19:47.592Z,52.70
2018-03-25T19:22:15.493Z,52.70
2018-03-25T19:24:43.239Z,52.80
2018-03-25T19:27:11.097Z,53.10
2018-03-25T19:29:39.022Z,53.00
2018-03-25T19:32:07.497Z,53.20
2018-03-25T19:34:35.384Z,53.20
2018-03-25T19:37:03.113Z,53.60
2018-03-25T19:39:31.101Z,53.10
2018-03-25T19:41:59.776Z,53.10
2018-03-25T19:44:27.680Z,52.70
2018-03-25T19:46:55.602Z,52.90
2018-03-25T19:49:23.140Z,52.40
2018-03-25T19:51:50.661Z,53.40
2018-03-25T19:54:18.185Z,53.80
2018-03-25T19:56:46.462Z,54.40
2018-03-25T19:59:14.026Z,54.40
2018-03-25T20:01:41.561Z,53.80
2018-03-25T20:04:09.129Z,53.20
2018-03-25T20:06:36.631Z,52.90
2018-03-25T20:09:05.580Z,53.70
2018-03-25T20:11:33.213Z,53.60
2018-03-25T20:14:00.719Z,53.40
2018-03-25T20:16:28.245Z,53.70
2018-03-25T20:18:55.743Z,53.50
2018-03-25T20:21:23.260Z,54.70
2018-03-25T20:23:50.754Z,54.30
2018-03-25T20:26:18.274Z,54.20
2018-03-25T20:28:45.754Z,53.90
2018-03-25T20:31:13.299Z,54.40
2018-03-25T20:33:40.789Z,55.10
2018-03-25T20:36:08.280Z,55.30
2018-03-25T20:38:35.802Z,55.10
2018-03-25T20:41:03.355Z,54.80
2018-03-25T20:43:30.910Z,55.10
2018-03-25T20:45:59.170Z,55.70
2018-03-25T20:48:26.666Z,55.70
2018-03-25T20:50:54.155Z,55.80
2018-03-25T20:53:21.643Z,56.00
2018-03-25T20:55:49.159Z,56.50
2018-03-25T20:58:16.662Z,55.80
2018-03-25T21:00:44.162Z,55.50
2018-03-25T21:03:11.696Z,55.90
2018-03-25T21:05:39.214Z,55.80
2018-03-25T21:08:06.722Z,55.80
2018-03-25T21:10:34.236Z,56.60
2018-03-25T21:13:01.740Z,56.20
2018-03-25T21:15:29.236Z,56.40
2018-03-25T21:17:56.766Z,56.50
2018-03-25T21:20:24.264Z,56.10
2018-03-25T21:22:52.658Z,56.30
2018-03-25T21:25:20.951Z,55.80
2018-03-25T21:27:48.456Z,55.70
2018-03-25T21:30:16.739Z,55.80
2018-03-25T21:32:44.229Z,55.80
2018-03-25T21:35:11.752Z,55.70
2018-03-25T21:37:39.259Z,55.90
2018-03-25T21:40:07.550Z,56.70
2018-03-25T21:42:35.832Z,57.00
2018-03-25T21:45:04.127Z,57.90
2018-03-25T21:47:32.407Z,58.70
2018-03-25T21:49:59.895Z,58.60
2018-03-25T21:52:27.413Z,58.90
2018-03-25T21:54:55.697Z,59.30
2018-03-25T21:57:23.978Z,59.30
2018-03-25T21:59:52.251Z,59.50
2018-03-25T22:02:20.509Z,59.50
2018-03-25T22:04:48.041Z,59.40
2018-03-25T22:07:15.543Z,59.80
2018-03-25T22:09:43.065Z,59.40
2018-03-25T22:12:10.577Z,58.50
2018-03-25T22:14:38.078Z,58.20
2018-03-25T22:17:05.600Z,58.70
2018-03-25T22:19:33.074Z,59.10
2018-03-25T22:22:01.351Z,59.50
2018-03-25T22:24:28.863Z,59.50
2018-03-25T22:26:56.393Z,60.00
2018-03-25T22:29:23.912Z,60.20
2018-03-25T22:31:51.420Z,59.80
2018-03-25T22:34:19.297Z,59.90
2018-03-25T22:36:47.558Z,61.30
2018-03-25T22:39:15.815Z,62.60
2018-03-25T22:41:43.329Z,62.50
2018-03-25T22:44:10.836Z,62.30
2018-03-25T22:46:38.346Z,61.80
2018-03-25T22:49:05.846Z,62.60
2018-03-25T22:51:33.345Z,63.00
2018-03-25T22:54:00.882Z,63.50
2018-03-25T22:56:28.368Z,64.20
2018-03-25T22:58:55.876Z,64.90
2018-03-25T23:01:23.403Z,64.20
2018-03-25T23:03:50.888Z,64.10
2018-03-25T23:06:18.394Z,65.30
2018-03-25T23:08:45.883Z,64.40
2018-03-25T23:11:13.396Z,65.30
2018-03-25T23:13:40.894Z,66.20
2018-03-25T23:16:08.396Z,66.20
2018-03-25T23:18:36.656Z,67.10
2018-03-25T23:21:04.161Z,67.00
2018-03-25T23:23:31.666Z,66.90
2018-03-25T23:25:59.155Z,65.60
2018-03-25T23:28:26.671Z,66.50
2018-03-25T23:30:54.148Z,66.20
2018-03-25T23:33:21.639Z,65.40
2018-03-25T23:35:49.141Z,65.90
2018-03-25T23:38:16.633Z,66.10
2018-03-25T23:40:44.908Z,66.70
2018-03-25T23:43:12.401Z,66.70
2018-03-25T23:45:39.893Z,66.40
2018-03-25T23:48:07.409Z,66.20
2018-03-25T23:50:34.907Z,64.80
2018-03-25T23:53:03.204Z,65.30
2018-03-25T23:55:30.759Z,65.20
2018-03-25T23:57:59.027Z,65.20
